createdAt,value
2019-04-06T00:01:27.775Z,67.33
2019-04-06T00:03:56.173Z,67.30
2019-04-06T00:06:24.551Z,68.00
2019-04-06T00:08:52.935Z,75.00
2019-04-06T00:11:21.319Z,65.83
2019-04-06T00:13:49.708Z,70.07
2019-04-06T00:16:18.149Z,67.20
2019-04-06T00:18:46.540Z,66.83
2019-04-06T00:21:14.920Z,62.10
2019-04-06T00:23:43.303Z,71.87
2019-04-06T00:26:11.697Z,69.83
2019-04-06T00:28:40.070Z,72.37
2019-04-06T00:31:13.053Z,67.57
2019-04-06T00:33:41.499Z,64.47
2019-04-06T00:36:09.875Z,71.63
2019-04-06T00:38:38.272Z,70.60
2019-04-06T00:41:06.648Z,73.67
2019-04-06T00:43:35.036Z,76.23
2019-04-06T00:46:03.489Z,74.87
2019-04-06T00:48:31.895Z,68.50
2019-04-06T00:51:00.275Z,76.53
2019-04-06T00:53:28.667Z,73.53
2019-04-06T00:55:57.111Z,68.60
2019-04-06T00:58:25.568Z,73.00
2019-04-06T01:00:54.027Z,72.30
2019-04-06T01:03:22.427Z,73.73
2019-04-06T01:05:50.815Z,70.90
2019-04-06T01:08:19.195Z,75.63
2019-04-06T01:10:47.576Z,77.03
2019-04-06T01:13:15.963Z,92.00
2019-04-06T01:15:44.418Z,88.10
2019-04-06T01:18:12.812Z,83.50
2019-04-06T01:20:41.197Z,76.83
2019-04-06T01:23:09.599Z,77.23
2019-04-06T01:25:37.980Z,78.67
2019-04-06T01:28:06.371Z,77.13
2019-04-06T01:30:34.769Z,79.60
2019-04-06T01:33:03.136Z,78.17
2019-04-06T01:35:31.531Z,83.73
2019-04-06T01:37:59.900Z,82.40
2019-04-06T01:40:28.283Z,85.97
2019-04-06T01:42:56.717Z,85.37
2019-04-06T01:45:25.091Z,78.97
2019-04-06T01:47:53.844Z,82.23
2019-04-06T01:50:22.241Z,83.20
2019-04-06T01:52:50.615Z,76.67
2019-04-06T01:55:19.012Z,84.10
2019-04-06T01:57:47.404Z,73.17
2019-04-06T02:00:15.985Z,81.13
2019-04-06T02:02:46.033Z,76.37
2019-04-06T02:05:14.479Z,75.60
2019-04-06T02:07:42.859Z,81.53
2019-04-06T02:10:11.888Z,79.03
2019-04-06T02:12:40.267Z,74.77
2019-04-06T02:15:08.796Z,77.17
2019-04-06T02:17:37.413Z,74.07
2019-04-06T02:20:06.563Z,80.13
2019-04-06T02:22:34.941Z,74.70
2019-04-06T02:25:03.599Z,84.30
2019-04-06T02:27:31.983Z,79.53
2019-04-06T02:30:18.583Z,79.67
2019-04-06T02:33:05.102Z,82.47
2019-04-06T02:35:44.043Z,81.30
2019-04-06T02:38:14.080Z,77.90
2019-04-06T02:41:03.771Z,78.03
2019-04-06T02:43:34.069Z,70.97
2019-04-06T02:46:02.528Z,76.70
2019-04-06T02:48:30.925Z,80.60
2019-04-06T02:50:59.309Z,74.53
2019-04-06T02:53:27.761Z,79.10
2019-04-06T02:55:56.166Z,82.90
2019-04-06T02:58:24.934Z,81.37
2019-04-06T03:00:53.517Z,84.13
2019-04-06T03:03:21.905Z,84.00
2019-04-06T03:05:50.299Z,76.83
2019-04-06T03:08:18.678Z,87.60
2019-04-06T03:10:47.077Z,77.60
2019-04-06T03:13:15.744Z,82.53
2019-04-06T03:15:44.204Z,87.67
2019-04-06T03:18:12.584Z,87.63
2019-04-06T03:20:40.980Z,74.53
2019-04-06T03:23:09.607Z,72.40
2019-04-06T03:25:38.048Z,71.03
2019-04-06T03:28:06.533Z,79.53
2019-04-06T03:30:34.920Z,77.40
2019-04-06T03:33:03.699Z,88.03
2019-04-06T03:35:32.276Z,88.43
2019-04-06T03:38:00.723Z,91.90
2019-04-06T03:40:29.127Z,93.37
2019-04-06T03:42:57.500Z,92.07
2019-04-06T03:45:25.891Z,98.90
2019-04-06T03:47:54.759Z,89.07
2019-04-06T03:50:23.273Z,98.97
2019-04-06T03:52:51.913Z,98.73
2019-04-06T03:55:20.302Z,100.80
2019-04-06T03:57:48.694Z,106.60
2019-04-06T04:00:17.320Z,108.93
2019-04-06T04:02:45.704Z,114.00
2019-04-06T04:05:14.100Z,110.57
2019-04-06T04:07:42.487Z,105.07
2019-04-06T04:10:14.794Z,112.37
2019-04-06T04:12:43.204Z,114.63
2019-04-06T04:15:11.743Z,107.13
2019-04-06T04:17:40.120Z,106.83
2019-04-06T04:20:08.727Z,96.77
2019-04-06T04:22:37.123Z,95.57
2019-04-06T04:25:06.243Z,102.53
2019-04-06T04:27:34.636Z,102.33
2019-04-06T04:30:03.700Z,100.27
2019-04-06T04:32:32.176Z,104.23
2019-04-06T04:35:00.797Z,103.33
2019-04-06T04:37:29.311Z,99.80
2019-04-06T04:39:57.887Z,104.70
2019-04-06T04:42:26.264Z,108.57
2019-04-06T04:44:54.804Z,108.20
2019-04-06T04:47:23.219Z,97.73
2019-04-06T04:49:51.600Z,101.60
2019-04-06T04:52:19.988Z,99.13
2019-04-06T04:54:48.365Z,91.43
2019-04-06T04:57:16.767Z,92.87
2019-04-06T04:59:45.322Z,90.07
2019-04-06T05:02:13.746Z,95.70
2019-04-06T05:04:42.179Z,91.10
2019-04-06T05:07:10.572Z,93.27
2019-04-06T05:09:39.015Z,90.70
2019-04-06T05:12:07.404Z,92.43
2019-04-06T05:15:01.180Z,86.53
2019-04-06T05:17:29.838Z,84.33
2019-04-06T05:19:58.352Z,94.10
2019-04-06T05:22:26.906Z,96.33
2019-04-06T05:24:55.276Z,86.97
2019-04-06T05:27:23.710Z,81.87
2019-04-06T05:29:52.118Z,78.43
2019-04-06T05:32:20.507Z,83.83
2019-04-06T05:34:48.891Z,80.67
2019-04-06T05:37:17.281Z,78.80
2019-04-06T05:39:45.672Z,75.60
2019-04-06T05:42:14.056Z,78.57
2019-04-06T05:44:42.440Z,78.90
2019-04-06T05:47:10.885Z,76.97
2019-04-06T05:49:39.271Z,76.23
2019-04-06T05:52:07.655Z,65.30
2019-04-06T05:54:36.035Z,68.80
2019-04-06T05:57:04.670Z,79.80
2019-04-06T05:59:33.062Z,67.23
2019-04-06T06:02:01.477Z,80.83
2019-04-06T06:04:30.008Z,72.60
2019-04-06T06:06:58.403Z,59.60
2019-04-06T06:09:26.790Z,62.00
2019-04-06T06:11:55.924Z,66.10
2019-04-06T06:14:24.444Z,60.93
2019-04-06T06:16:52.839Z,58.70
2019-04-06T06:19:21.227Z,55.70
2019-04-06T06:21:49.653Z,55.67
2019-04-06T06:24:18.073Z,64.10
2019-04-06T06:26:46.632Z,55.40
2019-04-06T06:29:15.048Z,58.43
2019-04-06T06:31:43.427Z,57.10
2019-04-06T06:34:11.818Z,59.63
2019-04-06T06:36:40.190Z,53.13
2019-04-06T06:39:09.003Z,50.37
2019-04-06T06:41:37.489Z,55.83
2019-04-06T06:44:05.858Z,47.37
2019-04-06T06:46:34.391Z,52.87
2019-04-06T06:49:02.801Z,55.80
2019-04-06T06:51:31.192Z,50.10
2019-04-06T06:53:59.603Z,44.67
2019-04-06T06:56:27.976Z,46.43
2019-04-06T06:58:56.355Z,44.90
2019-04-06T07:01:24.747Z,46.73
2019-04-06T07:03:53.395Z,39.80
2019-04-06T07:06:21.797Z,45.57
2019-04-06T07:08:50.358Z,41.90
2019-04-06T07:11:18.748Z,47.83
2019-04-06T07:13:47.205Z,34.60
2019-04-06T07:16:15.599Z,41.83
2019-04-06T07:18:43.988Z,37.90
2019-04-06T07:21:12.383Z,36.03
2019-04-06T07:23:40.818Z,35.80
2019-04-06T07:26:09.240Z,35.67
2019-04-06T07:28:39.161Z,42.60
2019-04-06T07:31:07.904Z,37.47
2019-04-06T07:33:36.288Z,34.60
2019-04-06T07:36:04.811Z,38.13
2019-04-06T07:38:33.211Z,35.90
2019-04-06T07:41:01.613Z,34.17
2019-04-06T07:43:30.102Z,37.50
2019-04-06T07:45:58.528Z,33.47
2019-04-06T07:48:26.923Z,34.57
2019-04-06T07:50:55.316Z,34.73
2019-04-06T07:53:23.708Z,35.27
2019-04-06T07:55:52.087Z,41.13
2019-04-06T07:58:20.481Z,45.23
2019-04-06T08:00:48.876Z,37.67
2019-04-06T08:03:17.255Z,38.80
2019-04-06T08:05:45.639Z,41.10
2019-04-06T08:08:14.031Z,62.47
2019-04-06T08:10:42.651Z,33.40
2019-04-06T08:13:11.082Z,36.00
2019-04-06T08:15:39.472Z,32.47
2019-04-06T08:18:07.876Z,34.67
2019-04-06T08:20:36.265Z,33.27
2019-04-06T08:23:04.657Z,31.00
2019-04-06T08:25:33.039Z,30.23
2019-04-06T08:28:01.446Z,32.20
2019-04-06T08:30:29.820Z,27.57
2019-04-06T08:32:58.252Z,28.93
2019-04-06T08:35:26.924Z,31.73
2019-04-06T08:37:55.312Z,29.87
2019-04-06T08:40:23.783Z,30.73
2019-04-06T08:42:52.172Z,26.13
2019-04-06T08:45:20.540Z,26.53
2019-04-06T08:47:48.944Z,26.83
2019-04-06T08:50:17.398Z,23.60
2019-04-06T08:52:45.779Z,26.50
2019-04-06T08:55:14.188Z,21.37
2019-04-06T08:57:42.567Z,21.77
2019-04-06T09:00:11.251Z,19.63
2019-04-06T09:02:39.764Z,20.43
2019-04-06T09:05:09.060Z,20.37
2019-04-06T09:07:37.511Z,17.67
2019-04-06T09:10:07.043Z,18.60
2019-04-06T09:12:35.427Z,16.70
2019-04-06T09:15:05.851Z,17.73
2019-04-06T09:17:34.248Z,18.63
2019-04-06T09:20:02.779Z,19.43
2019-04-06T09:22:31.162Z,21.93
2019-04-06T09:24:59.877Z,22.13
2019-04-06T09:27:28.513Z,21.57
2019-04-06T09:29:57.020Z,22.23
2019-04-06T09:32:25.416Z,21.47
2019-04-06T09:34:53.866Z,24.07
2019-04-06T09:37:22.571Z,26.23
2019-04-06T09:39:50.968Z,25.07
2019-04-06T09:42:19.471Z,26.30
2019-04-06T09:44:55.043Z,27.07
2019-04-06T09:47:25.067Z,24.37
2019-04-06T09:50:04.358Z,25.20
2019-04-06T09:52:49.666Z,25.97
2019-04-06T09:55:19.700Z,27.43
2019-04-06T09:57:55.554Z,29.80
2019-04-06T10:00:41.811Z,26.67
2019-04-06T10:03:11.836Z,28.47
2019-04-06T10:05:54.127Z,25.07
2019-04-06T10:08:26.831Z,25.97
2019-04-06T10:11:09.015Z,25.73
2019-04-06T10:13:41.737Z,24.67
2019-04-06T10:16:14.650Z,27.77
2019-04-06T10:18:53.660Z,26.33
2019-04-06T10:21:23.712Z,29.50
2019-04-06T10:24:02.962Z,24.93
2019-04-06T10:26:33.349Z,29.50
2019-04-06T10:29:19.915Z,28.10
2019-04-06T10:32:02.283Z,28.80
2019-04-06T10:34:50.725Z,26.10
2019-04-06T10:37:26.785Z,26.67
2019-04-06T10:40:13.233Z,26.77
2019-04-06T10:42:43.279Z,33.50
2019-04-06T10:45:28.330Z,27.77
2019-04-06T10:48:01.258Z,28.57
2019-04-06T10:50:43.565Z,28.97
2019-04-06T10:53:29.739Z,29.50
2019-04-06T10:56:02.813Z,29.73
2019-04-06T10:58:41.568Z,31.67
2019-04-06T11:01:28.263Z,27.60
2019-04-06T11:04:00.993Z,27.60
2019-04-06T11:06:43.015Z,35.30
2019-04-06T11:09:18.995Z,29.87
2019-04-06T11:11:58.721Z,30.43
2019-04-06T11:14:28.957Z,34.73
2019-04-06T11:16:58.945Z,31.70
2019-04-06T11:19:34.922Z,31.97
2019-04-06T11:22:05.008Z,30.57
2019-04-06T11:24:51.510Z,32.60
2019-04-06T11:27:34.011Z,29.50
2019-04-06T11:30:13.472Z,32.90
2019-04-06T11:32:55.332Z,31.57
2019-04-06T11:35:25.374Z,33.57
2019-04-06T11:37:58.383Z,33.67
2019-04-06T11:40:34.861Z,37.23
2019-04-06T11:43:21.255Z,29.97
2019-04-06T11:45:51.292Z,33.90
2019-04-06T11:48:26.811Z,33.50
2019-04-06T11:51:13.335Z,30.97
2019-04-06T11:54:00.075Z,29.77
2019-04-06T11:56:36.456Z,34.23
2019-04-06T11:59:12.498Z,32.50
2019-04-06T12:01:48.263Z,31.10
2019-04-06T12:04:30.393Z,31.77
2019-04-06T12:07:00.927Z,31.33
2019-04-06T12:09:31.843Z,31.33
2019-04-06T12:12:10.684Z,31.90
2019-04-06T12:14:40.748Z,30.47
2019-04-06T12:17:23.177Z,31.93
2019-04-06T12:19:53.316Z,33.03
2019-04-06T12:22:29.287Z,31.73
2019-04-06T12:25:05.507Z,28.13
2019-04-06T12:27:35.556Z,31.37
2019-04-06T12:30:23.363Z,31.93
2019-04-06T12:33:02.336Z,31.47
2019-04-06T12:35:35.343Z,52.17
2019-04-06T12:38:25.409Z,30.47
2019-04-06T12:41:07.596Z,31.13
2019-04-06T12:43:49.737Z,31.33
2019-04-06T12:46:22.174Z,30.67
2019-04-06T12:49:08.403Z,32.30
2019-04-06T12:51:54.997Z,29.80
2019-04-06T12:54:25.116Z,37.57
2019-04-06T12:56:58.200Z,39.83
2019-04-06T12:59:37.994Z,30.02
2019-04-06T13:02:16.856Z,29.05
2019-04-06T13:04:46.893Z,32.38
2019-04-06T13:07:33.216Z,29.60
2019-04-06T13:10:21.965Z,31.55
2019-04-06T13:13:04.439Z,29.52
2019-04-06T13:15:37.326Z,33.42
2019-04-06T13:18:24.256Z,28.47
2019-04-06T13:21:10.733Z,28.70
2019-04-06T13:23:52.905Z,29.67
2019-04-06T13:26:37.698Z,27.98
2019-04-06T13:29:16.561Z,24.47
2019-04-06T13:31:49.698Z,26.37
2019-04-06T13:34:28.783Z,28.05
2019-04-06T13:37:04.560Z,25.00
2019-04-06T13:39:40.846Z,25.05
2019-04-06T13:42:11.126Z,27.48
2019-04-06T13:44:41.325Z,31.55
2019-04-06T13:47:27.024Z,29.00
2019-04-06T13:49:59.848Z,29.90
2019-04-06T13:52:29.880Z,27.48
2019-04-06T13:55:05.620Z,28.92
2019-04-06T13:57:44.465Z,27.75
2019-04-06T14:00:27.140Z,30.17
2019-04-06T14:03:13.816Z,27.35
2019-04-06T14:05:43.835Z,27.40
2019-04-06T14:08:30.504Z,27.77
2019-04-06T14:11:17.552Z,26.45
2019-04-06T14:13:59.627Z,24.82
2019-04-06T14:16:41.288Z,25.37
2019-04-06T14:19:27.456Z,27.80
2019-04-06T14:22:12.760Z,25.33
2019-04-06T14:24:46.134Z,24.33
2019-04-06T14:27:16.242Z,26.30
2019-04-06T14:29:49.067Z,23.43
2019-04-06T14:32:35.302Z,25.63
2019-04-06T14:35:07.067Z,24.47
2019-04-06T14:37:53.603Z,29.83
2019-04-06T14:40:23.663Z,25.70
2019-04-06T14:43:09.902Z,26.13
2019-04-06T14:45:43.345Z,25.20
2019-04-06T14:48:19.679Z,26.87
2019-04-06T14:51:06.259Z,27.40
2019-04-06T14:53:36.309Z,27.73
2019-04-06T14:56:18.924Z,26.23
2019-04-06T14:58:51.705Z,27.50
2019-04-06T15:01:38.362Z,26.20
2019-04-06T15:04:11.684Z,27.00
2019-04-06T15:07:09.444Z,25.07
2019-04-06T15:09:31.584Z,26.37
2019-04-06T15:12:04.312Z,29.80
2019-04-06T15:14:37.223Z,27.37
2019-04-06T15:17:22.358Z,30.60
2019-04-06T15:20:08.928Z,27.97
2019-04-06T15:22:39.001Z,27.50
2019-04-06T15:25:15.130Z,26.23
2019-04-06T15:27:48.093Z,28.90
2019-04-06T15:30:30.221Z,26.07
2019-04-06T15:33:03.195Z,25.27
2019-04-06T15:35:36.230Z,25.27
2019-04-06T15:38:22.670Z,26.20
2019-04-06T15:40:52.725Z,29.43
2019-04-06T15:43:34.953Z,25.83
2019-04-06T15:46:10.797Z,27.27
2019-04-06T15:48:59.023Z,26.80
2019-04-06T15:51:41.448Z,26.67
2019-04-06T15:54:17.718Z,29.93
2019-04-06T15:56:47.803Z,26.67
2019-04-06T15:59:29.907Z,25.00
2019-04-06T16:02:02.402Z,26.57
2019-04-06T16:04:49.723Z,27.10
2019-04-06T16:07:36.201Z,28.50
2019-04-06T16:10:13.575Z,24.73
2019-04-06T16:12:43.611Z,30.77
2019-04-06T16:15:19.515Z,35.27
2019-04-06T16:18:06.191Z,35.43
2019-04-06T16:20:36.247Z,31.17
2019-04-06T16:23:07.635Z,35.70
2019-04-06T16:25:43.996Z,32.50
2019-04-06T16:28:17.292Z,31.50
2019-04-06T16:30:47.506Z,29.23
2019-04-06T16:33:33.805Z,31.57
2019-04-06T16:36:10.370Z,30.23
2019-04-06T16:38:52.711Z,34.93
2019-04-06T16:41:28.724Z,32.17
2019-04-06T16:44:01.560Z,33.83
2019-04-06T16:46:31.609Z,33.00
2019-04-06T16:49:01.998Z,36.47
2019-04-06T16:51:32.075Z,29.33
2019-04-06T16:54:02.107Z,35.40
2019-04-06T16:56:47.432Z,32.47
2019-04-06T16:59:35.472Z,35.60
2019-04-06T17:02:23.540Z,34.50
2019-04-06T17:05:02.552Z,35.57
2019-04-06T17:07:51.466Z,35.83
2019-04-06T17:10:38.149Z,39.60
2019-04-06T17:13:20.368Z,32.53
2019-04-06T17:15:50.409Z,32.50
2019-04-06T17:18:20.875Z,35.57
2019-04-06T17:21:07.295Z,33.93
2019-04-06T17:23:37.403Z,36.73
2019-04-06T17:26:07.431Z,39.57
2019-04-06T17:28:37.712Z,40.13
2019-04-06T17:31:20.065Z,43.30
2019-04-06T17:33:53.193Z,42.97
2019-04-06T17:36:26.197Z,43.40
2019-04-06T17:39:02.753Z,37.63
2019-04-06T17:41:48.803Z,38.30
2019-04-06T17:44:22.217Z,38.00
2019-04-06T17:46:58.536Z,38.23
2019-04-06T17:49:31.739Z,38.40
2019-04-06T17:52:01.910Z,44.17
2019-04-06T17:54:34.949Z,36.70
2019-04-06T17:57:04.974Z,40.37
2019-04-06T17:59:37.423Z,40.50
2019-04-06T18:02:10.256Z,47.47
2019-04-06T18:04:46.214Z,41.97
2019-04-06T18:07:32.314Z,45.37
2019-04-06T18:10:17.616Z,43.43
2019-04-06T18:12:50.900Z,37.90
2019-04-06T18:15:19.296Z,43.87
2019-04-06T18:17:48.168Z,42.37
2019-04-06T18:20:16.635Z,45.07
2019-04-06T18:22:45.033Z,41.90
2019-04-06T18:25:13.820Z,41.77
2019-04-06T18:27:42.263Z,43.03
2019-04-06T18:30:11.339Z,43.43
2019-04-06T18:32:44.896Z,45.37
2019-04-06T18:35:13.385Z,43.70
2019-04-06T18:37:43.419Z,45.80
2019-04-06T18:40:13.692Z,41.63
2019-04-06T18:42:42.073Z,40.20
2019-04-06T18:45:10.735Z,42.10
2019-04-06T18:47:39.097Z,40.17
2019-04-06T18:50:07.987Z,37.57
2019-04-06T18:52:36.626Z,37.03
2019-04-06T18:55:06.480Z,39.70
2019-04-06T18:57:34.999Z,40.73
2019-04-06T19:00:05.501Z,41.37
2019-04-06T19:02:33.886Z,44.73
2019-04-06T19:05:02.413Z,43.03
2019-04-06T19:07:30.840Z,43.47
2019-04-06T19:09:59.241Z,41.00
2019-04-06T19:12:27.627Z,50.97
2019-04-06T19:14:56.493Z,43.80
2019-04-06T19:17:24.987Z,47.57
2019-04-06T19:19:53.854Z,45.87
2019-04-06T19:22:22.807Z,47.77
2019-04-06T19:24:51.322Z,51.07
2019-04-06T19:27:19.713Z,52.50
2019-04-06T19:29:48.599Z,47.60
2019-04-06T19:32:17.067Z,44.57
2019-04-06T19:34:45.487Z,46.97
2019-04-06T19:37:13.848Z,50.63
2019-04-06T19:39:42.282Z,49.63
2019-04-06T19:42:10.944Z,50.00
2019-04-06T19:44:39.323Z,52.80
2019-04-06T19:47:07.703Z,57.57
2019-04-06T19:49:36.095Z,53.93
2019-04-06T19:52:04.487Z,60.33
2019-04-06T19:54:33.399Z,96.67
2019-04-06T19:57:01.823Z,59.73
2019-04-06T19:59:30.217Z,60.60
2019-04-06T20:01:58.700Z,53.67
2019-04-06T20:04:27.175Z,59.73
2019-04-06T20:06:55.898Z,57.57
2019-04-06T20:09:24.409Z,52.50
2019-04-06T20:12:04.355Z,49.27
2019-04-06T20:14:22.916Z,58.73
2019-04-06T20:16:51.341Z,58.00
2019-04-06T20:19:21.913Z,47.30
2019-04-06T20:21:49.951Z,51.07
2019-04-06T20:24:18.792Z,50.57
2019-04-06T20:26:47.518Z,57.20
2019-04-06T20:29:16.047Z,52.03
2019-04-06T20:31:44.688Z,57.23
2019-04-06T20:34:13.204Z,52.37
2019-04-06T20:36:41.945Z,46.97
2019-04-06T20:39:10.467Z,46.90
2019-04-06T20:41:38.862Z,44.43
2019-04-06T20:44:07.662Z,46.90
2019-04-06T20:46:36.120Z,52.03
2019-04-06T20:49:04.509Z,49.93
2019-04-06T20:51:33.301Z,52.13
2019-04-06T20:54:01.770Z,54.67
2019-04-06T20:56:30.168Z,50.23
2019-04-06T20:58:58.668Z,44.47
2019-04-06T21:01:27.662Z,54.87
2019-04-06T21:04:01.752Z,53.40
2019-04-06T21:06:26.291Z,54.47
2019-04-06T21:08:54.684Z,53.77
2019-04-06T21:11:23.298Z,48.03
2019-04-06T21:13:51.736Z,49.30
2019-04-06T21:16:20.575Z,51.33
2019-04-06T21:18:49.114Z,58.60
2019-04-06T21:21:17.673Z,55.30
2019-04-06T21:23:46.304Z,51.53
2019-04-06T21:26:15.203Z,55.20
2019-04-06T21:28:43.587Z,53.13
2019-04-06T21:31:12.155Z,55.53
2019-04-06T21:33:41.068Z,54.43
2019-04-06T21:36:09.537Z,55.07
2019-04-06T21:38:37.944Z,47.33
2019-04-06T21:41:06.961Z,52.47
2019-04-06T21:43:35.446Z,55.33
2019-04-06T21:46:03.954Z,52.83
2019-04-06T21:48:32.442Z,48.73
2019-04-06T21:51:00.816Z,53.73
2019-04-06T21:53:29.217Z,55.37
2019-04-06T21:56:03.237Z,49.47
2019-04-06T21:58:27.707Z,48.53
2019-04-06T22:00:58.007Z,57.00
2019-04-06T22:03:26.826Z,48.63
2019-04-06T22:05:55.815Z,49.90
2019-04-06T22:08:24.899Z,59.23
2019-04-06T22:10:53.949Z,56.77
2019-04-06T22:13:22.452Z,53.37
2019-04-06T22:15:50.845Z,47.47
2019-04-06T22:18:19.355Z,44.13
2019-04-06T22:20:47.703Z,48.30
2019-04-06T22:23:16.076Z,52.80
2019-04-06T22:25:44.870Z,54.97
2019-04-06T22:28:13.328Z,62.03
2019-04-06T22:30:41.775Z,58.97
2019-04-06T22:33:10.176Z,60.57
2019-04-06T22:35:38.962Z,64.33
2019-04-06T22:38:08.021Z,58.67
2019-04-06T22:40:37.000Z,61.67
2019-04-06T22:43:05.432Z,57.43
2019-04-06T22:45:34.686Z,65.57
2019-04-06T22:48:03.546Z,60.03
2019-04-06T22:50:32.631Z,62.17
2019-04-06T22:53:01.184Z,65.93
2019-04-06T22:55:29.819Z,67.37
2019-04-06T22:57:58.220Z,69.63
2019-04-06T23:00:31.451Z,68.63
2019-04-06T23:03:14.689Z,73.23
2019-04-06T23:06:01.279Z,73.97
2019-04-06T23:08:29.719Z,72.33
2019-04-06T23:10:58.130Z,77.10
2019-04-06T23:13:26.898Z,85.77
2019-04-06T23:15:55.423Z,77.20
2019-04-06T23:18:23.804Z,81.10
2019-04-06T23:20:52.853Z,71.53
2019-04-06T23:23:21.367Z,72.70
2019-04-06T23:25:49.751Z,77.70
2019-04-06T23:28:18.163Z,75.93
2019-04-06T23:30:46.598Z,65.57
2019-04-06T23:33:14.978Z,66.97
2019-04-06T23:35:43.364Z,71.33
2019-04-06T23:38:12.293Z,69.87
2019-04-06T23:40:40.797Z,81.57
2019-04-06T23:43:09.675Z,75.40
2019-04-06T23:45:38.145Z,84.43
2019-04-06T23:48:25.903Z,78.77
2019-04-06T23:50:54.333Z,74.47
2019-04-06T23:53:23.128Z,75.23
2019-04-06T23:55:51.825Z,81.27
2019-04-06T23:58:20.212Z,68.77
